createdAt,value
2016-04-12T00:00:52.847Z,1003.82
2016-04-12T00:01:52.850Z,1003.79
2016-04-12T00:02:52.853Z,1003.77
2016-04-12T00:03:52.870Z,1003.75
2016-04-12T00:04:52.873Z,1003.7
2016-04-12T00:05:52.875Z,1003.62
2016-04-12T00:06:52.878Z,1003.64
2016-04-12T00:07:52.897Z,1003.61
2016-04-12T00:08:52.895Z,1003.55
2016-04-12T00:09:52.898Z,1003.55
2016-04-12T00:10:52.901Z,1003.58
2016-04-12T00:11:52.903Z,1003.61
2016-04-12T00:12:52.922Z,1003.58
2016-04-12T00:13:52.925Z,1003.66
2016-04-12T00:14:52.927Z,1003.62
2016-04-12T00:15:52.930Z,1003.7
2016-04-12T00:16:52.932Z,1003.78
2016-04-12T00:17:52.950Z,1003.91
2016-04-12T00:18:52.953Z,1004.01
2016-04-12T00:19:52.955Z,1004.01
2016-04-12T00:20:52.958Z,1003.98
2016-04-12T00:21:52.976Z,1003.93
2016-04-12T00:22:52.980Z,1003.87
2016-04-12T00:23:52.982Z,1003.86
2016-04-12T00:24:52.985Z,1003.87
2016-04-12T00:25:52.987Z,1003.92
2016-04-12T00:26:53.007Z,1003.92
2016-04-12T00:27:53.008Z,1003.91
2016-04-12T00:28:53.012Z,1003.88
2016-04-12T00:29:53.015Z,1003.86
2016-04-12T00:30:53.030Z,1003.83
2016-04-12T00:31:53.025Z,1003.81
2016-04-12T00:32:53.032Z,1003.86
2016-04-12T00:33:53.035Z,1003.92
2016-04-12T00:34:53.037Z,1003.91
2016-04-12T00:35:53.056Z,1003.9
2016-04-12T00:36:53.059Z,1003.84
2016-04-12T00:37:53.062Z,1003.87
2016-04-12T00:38:53.065Z,1003.86
2016-04-12T00:39:53.067Z,1003.85
2016-04-12T00:40:53.086Z,1003.82
2016-04-12T00:41:53.088Z,1003.89
2016-04-12T00:42:53.092Z,1003.87
2016-04-12T00:43:53.094Z,1003.87
2016-04-12T00:44:53.111Z,1003.89
2016-04-12T00:45:53.115Z,1003.87
2016-04-12T00:46:53.117Z,1003.86
2016-04-12T00:47:53.120Z,1003.84
2016-04-12T00:48:53.122Z,1003.83
2016-04-12T00:49:53.126Z,1003.79
2016-04-12T00:50:53.128Z,1003.77
2016-04-12T00:51:53.147Z,1003.8
2016-04-12T00:52:53.149Z,1003.74
2016-04-12T00:53:53.152Z,1003.74
2016-04-12T00:54:53.155Z,1003.66
2016-04-12T00:55:53.173Z,1003.59
2016-04-12T00:56:53.175Z,1003.61
2016-04-12T00:57:53.177Z,1003.58
2016-04-12T00:58:53.181Z,1003.56
2016-04-12T00:59:53.183Z,1003.52
2016-04-12T01:00:53.201Z,1003.52
2016-04-12T01:01:53.236Z,1003.51
2016-04-12T01:02:53.207Z,1003.48
2016-04-12T01:03:53.210Z,1003.42
2016-04-12T01:04:53.212Z,1003.36
2016-04-12T01:05:53.215Z,1003.31
2016-04-12T01:06:53.234Z,1003.3
2016-04-12T01:07:53.237Z,1003.24
2016-04-12T01:08:53.239Z,1003.23
2016-04-12T01:09:53.257Z,1003.2
2016-04-12T01:10:53.245Z,1003.21
2016-04-12T01:11:53.263Z,1003.15
2016-04-12T01:12:53.265Z,1003.17
2016-04-12T01:13:53.267Z,1003.13
2016-04-12T01:14:53.286Z,1003.09
2016-04-12T01:15:53.273Z,1003.06
2016-04-12T01:16:53.386Z,1003.05
2016-04-12T01:17:53.294Z,1003.01
2016-04-12T01:18:53.297Z,1002.98
2016-04-12T01:19:53.300Z,1002.98
2016-04-12T01:20:53.302Z,1002.96
2016-04-12T01:21:53.321Z,1002.95
2016-04-12T01:22:53.324Z,1002.97
2016-04-12T01:23:53.327Z,1002.97
2016-04-12T01:24:53.329Z,1003.01
2016-04-12T01:25:53.332Z,1003.01
2016-04-12T01:26:53.350Z,1003.01
2016-04-12T01:27:53.352Z,1003.04
2016-04-12T01:28:53.355Z,1003.04
2016-04-12T01:29:53.358Z,1003.07
2016-04-12T01:30:53.360Z,1003.1
2016-04-12T01:31:53.410Z,1003.14
2016-04-12T01:32:53.382Z,1003.21
2016-04-12T01:33:53.384Z,1003.22
2016-04-12T01:34:53.387Z,1003.3
2016-04-12T01:35:53.390Z,1003.24
2016-04-12T01:36:53.392Z,1003.27
2016-04-12T01:37:53.410Z,1003.23
2016-04-12T01:38:53.413Z,1003.26
2016-04-12T01:39:53.415Z,1003.2
2016-04-12T01:40:53.434Z,1003.16
2016-04-12T01:41:53.437Z,1003.17
2016-04-12T01:42:53.423Z,1003.12
2016-04-12T01:43:53.443Z,1003.11
2016-04-12T01:44:53.445Z,1003.11
2016-04-12T01:45:53.448Z,1003.06
2016-04-12T01:46:53.466Z,1003.13
2016-04-12T01:47:53.453Z,1003.12
2016-04-12T01:48:53.456Z,1003.07
2016-04-12T01:49:53.474Z,1003.07
2016-04-12T01:50:53.477Z,1003.08
2016-04-12T01:51:53.480Z,1003.11
2016-04-12T01:52:53.482Z,1003.13
2016-04-12T01:53:53.485Z,1003.16
2016-04-12T01:54:53.503Z,1003.21
2016-04-12T01:55:53.506Z,1003.22
2016-04-12T01:56:53.509Z,1003.18
2016-04-12T01:57:53.527Z,1003.22
2016-04-12T01:58:53.513Z,1003.2
2016-04-12T01:59:53.533Z,1003.23
2016-04-12T02:00:53.535Z,1003.23
2016-04-12T02:01:53.538Z,1003.23
2016-04-12T02:02:53.541Z,1003.24
2016-04-12T02:03:53.543Z,1003.27
2016-04-12T02:04:53.562Z,1003.27
2016-04-12T02:05:53.564Z,1003.3
2016-04-12T02:06:53.567Z,1003.27
2016-04-12T02:07:53.570Z,1003.33
2016-04-12T02:08:53.572Z,1003.27
2016-04-12T02:09:53.575Z,1003.27
2016-04-12T02:10:53.592Z,1003.27
2016-04-12T02:11:53.611Z,1003.23
2016-04-12T02:12:53.598Z,1003.2
2016-04-12T02:13:53.601Z,1003.15
2016-04-12T02:14:53.603Z,1003.14
2016-04-12T02:15:53.637Z,1003.13
2016-04-12T02:16:53.640Z,1003.13
2016-04-12T02:17:53.628Z,1003.16
2016-04-12T02:18:53.631Z,1003.12
2016-04-12T02:19:53.633Z,1003.13
2016-04-12T02:20:53.651Z,1003.08
2016-04-12T02:21:53.639Z,1003.06
2016-04-12T02:22:53.656Z,1003.07
2016-04-12T02:23:53.659Z,1003.08
2016-04-12T02:24:53.662Z,1003.06
2016-04-12T02:25:53.664Z,1003.03
2016-04-12T02:26:53.667Z,1003
2016-04-12T02:27:53.685Z,1002.98
2016-04-12T02:28:53.688Z,1002.95
2016-04-12T02:29:53.691Z,1002.92
2016-04-12T02:30:53.693Z,1002.89
2016-04-12T02:31:53.712Z,1002.92
2016-04-12T02:32:53.699Z,1002.93
2016-04-12T02:33:53.718Z,1002.91
2016-04-12T02:34:53.721Z,1002.93
2016-04-12T02:35:53.724Z,1002.96
2016-04-12T02:36:53.726Z,1002.98
2016-04-12T02:37:53.729Z,1003.01
2016-04-12T02:38:53.746Z,1002.94
2016-04-12T02:39:53.749Z,1002.9
2016-04-12T02:40:53.752Z,1002.9
2016-04-12T02:41:53.754Z,1002.89
2016-04-12T02:42:53.757Z,1002.88
2016-04-12T02:43:53.776Z,1002.89
2016-04-12T02:44:53.779Z,1002.89
2016-04-12T02:45:53.781Z,1002.88
2016-04-12T02:46:53.784Z,1002.86
2016-04-12T02:47:53.786Z,1002.88
2016-04-12T02:48:53.789Z,1002.89
2016-04-12T02:49:53.808Z,1002.89
2016-04-12T02:50:53.810Z,1002.93
2016-04-12T02:51:53.813Z,1002.9
2016-04-12T02:52:53.816Z,1002.96
2016-04-12T02:53:53.833Z,1002.94
2016-04-12T02:54:53.836Z,1002.97
2016-04-12T02:55:53.839Z,1002.92
2016-04-12T02:56:53.841Z,1002.92
2016-04-12T02:57:53.844Z,1002.87
2016-04-12T02:58:53.846Z,1002.89
2016-04-12T02:59:53.849Z,1002.89
2016-04-12T03:00:53.868Z,1002.9
2016-04-12T03:01:53.871Z,1002.88
2016-04-12T03:02:53.873Z,1002.86
2016-04-12T03:03:53.876Z,1002.87
2016-04-12T03:04:53.879Z,1002.85
2016-04-12T03:05:53.896Z,1002.84
2016-04-12T03:06:53.899Z,1002.85
2016-04-12T03:07:53.902Z,1002.82
2016-04-12T03:08:53.904Z,1002.83
2016-04-12T03:09:53.923Z,1002.81
2016-04-12T03:10:53.926Z,1002.77
2016-04-12T03:11:53.929Z,1002.77
2016-04-12T03:12:53.932Z,1002.75
2016-04-12T03:13:53.934Z,1002.74
2016-04-12T03:14:53.937Z,1002.74
2016-04-12T03:15:53.970Z,1002.7
2016-04-12T03:16:53.958Z,1002.7
2016-04-12T03:17:53.961Z,1002.64
2016-04-12T03:18:53.963Z,1002.68
2016-04-12T03:19:53.967Z,1002.69
2016-04-12T03:20:53.985Z,1002.68
2016-04-12T03:21:53.987Z,1002.67
2016-04-12T03:22:53.990Z,1002.64
2016-04-12T03:23:53.992Z,1002.67
2016-04-12T03:24:53.995Z,1002.67
2016-04-12T03:25:53.998Z,1002.69
2016-04-12T03:26:54.000Z,1002.71
2016-04-12T03:27:54.019Z,1002.76
2016-04-12T03:28:54.021Z,1002.76
2016-04-12T03:29:54.024Z,1002.76
2016-04-12T03:31:54.029Z,1002.79
2016-04-12T03:32:54.048Z,1002.79
2016-04-12T03:33:54.051Z,1002.8
2016-04-12T03:34:54.054Z,1002.82
2016-04-12T03:35:54.087Z,1002.77
2016-04-12T03:36:54.059Z,1002.79
2016-04-12T03:37:54.077Z,1002.75
2016-04-12T03:38:54.080Z,1002.78
2016-04-12T03:39:54.083Z,1002.81
2016-04-12T03:40:54.101Z,1002.81
2016-04-12T03:41:54.088Z,1002.77
2016-04-12T03:42:54.106Z,1002.81
2016-04-12T03:43:54.109Z,1002.8
2016-04-12T03:44:54.112Z,1002.81
2016-04-12T03:45:54.114Z,1002.82
2016-04-12T03:46:54.117Z,1002.83
2016-04-12T03:47:54.134Z,1002.86
2016-04-12T03:48:54.137Z,1002.86
2016-04-12T03:49:54.140Z,1002.86
2016-04-12T03:50:54.142Z,1002.88
2016-04-12T03:51:54.145Z,1002.83
2016-04-12T03:52:54.148Z,1002.88
2016-04-12T03:53:54.151Z,1002.86
2016-04-12T03:54:54.170Z,1002.87
2016-04-12T03:55:54.172Z,1002.88
2016-04-12T03:56:54.175Z,1002.86
2016-04-12T03:57:54.193Z,1002.88
2016-04-12T03:58:54.181Z,1002.86
2016-04-12T03:59:54.199Z,1002.85
2016-04-12T04:00:54.202Z,1002.87
2016-04-12T04:01:54.204Z,1002.86
2016-04-12T04:02:54.207Z,1002.83
2016-04-12T04:03:54.225Z,1002.85
2016-04-12T04:04:54.213Z,1002.9
2016-04-12T04:05:54.230Z,1002.84
2016-04-12T04:06:54.232Z,1002.82
2016-04-12T04:07:54.235Z,1002.84
2016-04-12T04:08:54.239Z,1002.85
2016-04-12T04:09:54.241Z,1002.82
2016-04-12T04:10:54.260Z,1002.82
2016-04-12T04:11:54.262Z,1002.85
2016-04-12T04:12:54.265Z,1002.83
2016-04-12T04:13:54.268Z,1002.8
2016-04-12T04:14:54.286Z,1002.81
2016-04-12T04:15:54.273Z,1002.86
2016-04-12T04:16:54.291Z,1002.88
2016-04-12T04:17:54.310Z,1002.87
2016-04-12T04:18:54.297Z,1002.91
2016-04-12T04:19:54.315Z,1002.91
2016-04-12T04:20:54.317Z,1002.91
2016-04-12T04:21:54.320Z,1002.9
2016-04-12T04:22:54.323Z,1002.93
2016-04-12T04:23:54.325Z,1002.96
2016-04-12T04:24:54.328Z,1002.96
2016-04-12T04:25:54.331Z,1002.98
2016-04-12T04:26:54.334Z,1002.96
2016-04-12T04:27:54.352Z,1002.95
2016-04-12T04:28:54.355Z,1002.87
2016-04-12T04:29:54.358Z,1002.87
2016-04-12T04:30:54.360Z,1002.87
2016-04-12T04:31:54.363Z,1002.82
2016-04-12T04:32:54.381Z,1002.85
2016-04-12T04:33:54.383Z,1002.87
2016-04-12T04:34:54.386Z,1002.87
2016-04-12T04:35:54.388Z,1002.86
2016-04-12T04:36:54.392Z,1002.88
2016-04-12T04:37:54.394Z,1002.88
2016-04-12T04:38:54.413Z,1002.9
2016-04-12T04:39:54.416Z,1002.89
2016-04-12T04:40:54.418Z,1002.93
2016-04-12T04:41:54.421Z,1002.89
2016-04-12T04:42:54.424Z,1002.86
2016-04-12T04:43:54.426Z,1002.9
2016-04-12T04:44:54.445Z,1002.9
2016-04-12T04:45:54.448Z,1002.93
2016-04-12T04:46:54.450Z,1002.93
2016-04-12T04:47:54.453Z,1002.93
2016-04-12T04:48:54.456Z,1002.94
2016-04-12T04:49:54.459Z,1002.96
2016-04-12T04:50:54.476Z,1003.01
2016-04-12T04:51:54.479Z,1003.03
2016-04-12T04:52:54.481Z,1003.06
2016-04-12T04:53:54.485Z,1003.06
2016-04-12T04:54:54.487Z,1003.01
2016-04-12T04:55:54.506Z,1003.01
2016-04-12T04:56:54.508Z,1003.05
2016-04-12T04:57:54.510Z,1003.05
2016-04-12T04:58:54.514Z,1003.05
2016-04-12T04:59:54.516Z,1003.04
2016-04-12T05:00:54.535Z,1003.05
2016-04-12T05:01:54.538Z,1003.06
2016-04-12T05:02:54.540Z,1003.1
2016-04-12T05:03:54.543Z,1003.07
2016-04-12T05:04:54.546Z,1003.11
2016-04-12T05:05:54.549Z,1003.08
2016-04-12T05:06:54.566Z,1003.15
2016-04-12T05:07:54.569Z,1003.13
2016-04-12T05:08:55.072Z,1003.13
2016-04-12T05:09:54.575Z,1003.13
2016-04-12T05:10:54.587Z,1003.13
2016-04-12T05:11:54.589Z,1003.15
2016-04-12T05:12:54.593Z,1003.12
2016-04-12T05:13:54.595Z,1003.13
2016-04-12T05:14:54.597Z,1003.15
2016-04-12T05:15:54.617Z,1003.17
2016-04-12T05:16:54.619Z,1003.19
2016-04-12T05:17:54.622Z,1003.18
2016-04-12T05:18:54.624Z,1003.15
2016-04-12T05:19:54.627Z,1003.17
2016-04-12T05:20:54.630Z,1003.23
2016-04-12T05:21:54.647Z,1003.29
2016-04-12T05:22:54.650Z,1003.34
2016-04-12T05:23:54.653Z,1003.42
2016-04-12T05:24:54.656Z,1003.25
2016-04-12T05:25:54.659Z,1003.25
2016-04-12T05:26:54.677Z,1003.22
2016-04-12T05:27:54.680Z,1003.21
2016-04-12T05:28:54.682Z,1003.27
2016-04-12T05:29:54.685Z,1003.25
2016-04-12T05:30:54.688Z,1003.27
2016-04-12T05:31:54.705Z,1003.27
2016-04-12T05:32:54.708Z,1003.27
2016-04-12T05:33:54.710Z,1003.29
2016-04-12T05:34:54.714Z,1003.28
2016-04-12T05:35:54.716Z,1003.32
2016-04-12T05:36:54.718Z,1003.37
2016-04-12T05:37:54.738Z,1003.44
2016-04-12T05:38:54.740Z,1003.51
2016-04-12T05:39:54.743Z,1003.53
2016-04-12T05:40:54.746Z,1003.59
2016-04-12T05:41:54.748Z,1003.63
2016-04-12T05:42:54.751Z,1003.61
2016-04-12T05:43:54.769Z,1003.64
2016-04-12T05:44:54.773Z,1003.59
2016-04-12T05:45:54.775Z,1003.61
2016-04-12T05:46:54.778Z,1003.62
2016-04-12T05:47:54.795Z,1003.55
2016-04-12T05:48:54.798Z,1003.56
2016-04-12T05:49:54.801Z,1003.54
2016-04-12T05:50:54.803Z,1003.56
2016-04-12T05:51:54.822Z,1003.79
2016-04-12T05:52:54.809Z,1003.82
2016-04-12T05:53:54.828Z,1003.68
2016-04-12T05:54:54.830Z,1003.83
2016-04-12T05:55:54.833Z,1003.76
2016-04-12T05:56:54.836Z,1003.8
2016-04-12T05:57:54.838Z,1003.93
2016-04-12T05:58:54.857Z,1003.9
2016-04-12T05:59:54.860Z,1003.78
2016-04-12T06:00:54.862Z,1003.66
2016-04-12T06:01:54.865Z,1003.67
2016-04-12T06:02:54.914Z,1003.68
2016-04-12T06:03:54.886Z,1003.79
2016-04-12T06:04:54.888Z,1004
2016-04-12T06:05:54.890Z,1004.06
2016-04-12T06:06:54.910Z,1004
2016-04-12T06:07:54.912Z,1003.93
2016-04-12T06:08:54.915Z,1003.83
2016-04-12T06:09:54.933Z,1003.77
2016-04-12T06:10:54.935Z,1003.8
2016-04-12T06:11:54.938Z,1003.86
2016-04-12T06:12:54.940Z,1003.91
2016-04-12T06:13:54.959Z,1003.91
2016-04-12T06:14:54.962Z,1003.91
2016-04-12T06:15:54.965Z,1003.87
2016-04-12T06:16:54.967Z,1003.94
2016-04-12T06:17:55.017Z,1004.04
2016-04-12T06:18:54.989Z,1004.1
2016-04-12T06:19:54.991Z,1004.19
2016-04-12T06:20:55.009Z,1004.33
2016-04-12T06:21:55.012Z,1004.3
2016-04-12T06:22:55.015Z,1004.26
2016-04-12T06:23:55.033Z,1004.38
2016-04-12T06:24:55.052Z,1004.51
2016-04-12T06:25:55.039Z,1004.49
2016-04-12T06:26:55.057Z,1004.56
2016-04-12T06:27:55.059Z,1004.59
2016-04-12T06:28:55.063Z,1004.66
2016-04-12T06:29:55.065Z,1004.74
2016-04-12T06:30:55.083Z,1004.68
2016-04-12T06:31:55.086Z,1004.76
2016-04-12T06:32:55.166Z,1004.82
2016-04-12T06:33:55.107Z,1004.79
2016-04-12T06:34:55.110Z,1004.77
2016-04-12T06:35:55.128Z,1004.86
2016-04-12T06:36:55.130Z,1005.02
2016-04-12T06:37:55.133Z,1005.04
2016-04-12T06:38:55.152Z,1004.93
2016-04-12T06:39:55.155Z,1004.92
2016-04-12T06:40:55.173Z,1004.85
2016-04-12T06:41:55.175Z,1004.89
2016-04-12T06:42:55.193Z,1004.96
2016-04-12T06:43:55.196Z,1005.01
2016-04-12T06:44:55.199Z,1005.09
2016-04-12T06:45:55.201Z,1005.07
2016-04-12T06:46:55.220Z,1005.07
2016-04-12T06:47:55.332Z,1005.08
2016-04-12T06:48:55.241Z,1005.02
2016-04-12T06:49:55.259Z,1005.06
2016-04-12T06:50:55.262Z,1004.99
2016-04-12T06:51:55.265Z,1004.88
2016-04-12T06:52:55.283Z,1004.96
2016-04-12T06:53:55.286Z,1005.04
2016-04-12T06:54:55.304Z,1005.09
2016-04-12T06:55:55.307Z,1005.08
2016-04-12T06:56:55.325Z,1005.12
2016-04-12T06:57:55.328Z,1005.17
2016-04-12T06:58:55.346Z,1004.95
2016-04-12T06:59:55.349Z,1004.34
2016-04-12T07:00:55.351Z,1003.84
2016-04-12T07:01:55.369Z,1003.76
2016-04-12T07:02:55.404Z,1003.72
2016-04-12T07:03:55.391Z,1003.76
2016-04-12T07:04:55.393Z,1003.68
2016-04-12T07:05:55.412Z,1003.74
2016-04-12T07:06:55.415Z,1003.74
2016-04-12T07:07:55.417Z,1003.73
2016-04-12T07:08:55.435Z,1003.72
2016-04-12T07:09:55.454Z,1003.73
2016-04-12T07:10:55.440Z,1003.72
2016-04-12T07:11:55.459Z,1003.74
2016-04-12T07:12:55.462Z,1003.71
2016-04-12T07:13:55.465Z,1003.69
2016-04-12T07:14:55.482Z,1003.69
2016-04-12T07:15:55.485Z,1003.63
2016-04-12T07:16:55.488Z,1003.6
2016-04-12T07:17:55.537Z,1003.66
2016-04-12T07:18:55.509Z,1003.65
2016-04-12T07:19:55.512Z,1003.74
2016-04-12T07:20:55.531Z,1003.72
2016-04-12T07:21:55.533Z,1003.75
2016-04-12T07:22:55.536Z,1003.76
2016-04-12T07:23:55.538Z,1003.73
2016-04-12T07:24:55.556Z,1003.73
2016-04-12T07:25:55.559Z,1003.73
2016-04-12T07:26:55.562Z,1003.76
2016-04-12T07:27:55.580Z,1003.72
2016-04-12T07:28:55.583Z,1003.72
2016-04-12T07:29:55.586Z,1003.77
2016-04-12T07:30:55.604Z,1003.78
2016-04-12T07:31:55.607Z,1003.79
2016-04-12T07:32:55.610Z,1003.75
2016-04-12T07:33:55.613Z,1003.78
2016-04-12T07:34:55.615Z,1003.78
2016-04-12T07:35:55.632Z,1003.81
2016-04-12T07:36:55.636Z,1003.89
2016-04-12T07:37:55.638Z,1003.86
2016-04-12T07:38:55.657Z,1003.88
2016-04-12T07:39:55.660Z,1003.89
2016-04-12T07:40:55.662Z,1003.88
2016-04-12T07:41:55.683Z,1003.9
2016-04-12T07:42:55.719Z,1003.95
2016-04-12T07:43:55.785Z,1003.96
2016-04-12T07:44:55.835Z,1004.03
2016-04-12T07:45:55.887Z,1004.03
2016-04-12T07:46:55.951Z,1004.05
2016-04-12T07:47:55.971Z,1004.03
2016-04-12T07:48:55.990Z,1004.01
2016-04-12T07:49:56.011Z,1004
2016-04-12T07:50:56.047Z,1004.01
2016-04-12T07:51:56.066Z,1003.99
2016-04-12T07:52:56.075Z,1004.04
2016-04-12T07:53:56.098Z,1004
2016-04-12T07:54:56.107Z,1004
2016-04-12T07:55:56.116Z,1004.02
2016-04-12T07:56:56.125Z,1003.99
2016-04-12T07:57:56.146Z,1003.98
2016-04-12T07:58:56.151Z,1004
2016-04-12T07:59:56.156Z,1004.01
2016-04-12T08:00:56.160Z,1004
2016-04-12T08:01:56.181Z,1003.95
2016-04-12T08:02:56.185Z,1003.93
2016-04-12T08:03:56.189Z,1003.95
2016-04-12T08:04:56.192Z,1003.93
2016-04-12T08:05:56.195Z,1003.91
2016-04-12T08:06:56.214Z,1003.97
2016-04-12T08:07:56.233Z,1003.98
2016-04-12T08:08:56.225Z,1003.98
2016-04-12T08:09:56.243Z,1004.04
2016-04-12T08:10:56.247Z,1004.04
2016-04-12T08:11:56.250Z,1004.02
2016-04-12T08:12:56.252Z,1004
2016-04-12T08:13:56.260Z,1003.98
2016-04-12T08:14:56.278Z,1004.01
2016-04-12T08:15:56.266Z,1004.05
2016-04-12T08:16:56.284Z,1004.03
2016-04-12T08:17:56.286Z,1004.03
2016-04-12T08:18:56.288Z,1003.97
2016-04-12T08:19:56.308Z,1004.02
2016-04-12T08:20:56.310Z,1004.02
2016-04-12T08:21:56.328Z,1004
2016-04-12T08:22:56.330Z,1004.07
2016-04-12T08:23:56.319Z,1004.03
2016-04-12T08:24:56.336Z,1004.08
2016-04-12T08:25:56.338Z,1004.08
2016-04-12T08:26:56.357Z,1004.03
2016-04-12T08:27:56.360Z,1004.03
2016-04-12T08:28:56.363Z,1004.04
2016-04-12T08:29:56.366Z,1004.06
2016-04-12T08:30:56.368Z,1004.02
2016-04-12T08:31:56.387Z,1004
2016-04-12T08:32:56.389Z,1004.05
2016-04-12T08:33:56.392Z,1004.02
2016-04-12T08:34:56.395Z,1003.97
2016-04-12T08:35:56.413Z,1004.01
2016-04-12T08:36:56.415Z,1003.98
2016-04-12T08:37:56.418Z,1004.02
2016-04-12T08:38:56.437Z,1004.06
2016-04-12T08:39:56.440Z,1004.07
2016-04-12T08:40:56.442Z,1004.06
2016-04-12T08:41:56.445Z,1004.03
2016-04-12T08:42:56.464Z,1004.03
2016-04-12T08:43:56.466Z,1004.02
2016-04-12T08:44:56.469Z,1004.04
2016-04-12T08:45:56.472Z,1004.12
2016-04-12T08:46:56.489Z,1004.11
2016-04-12T08:47:56.492Z,1004.1
2016-04-12T08:48:56.495Z,1004.09
2016-04-12T08:49:56.513Z,1004.08
2016-04-12T08:50:56.516Z,1004.06
2016-04-12T08:51:56.519Z,1004.07
2016-04-12T08:52:56.521Z,1004.07
2016-04-12T08:53:56.539Z,1004.04
2016-04-12T08:54:56.542Z,1004.02
2016-04-12T08:55:56.545Z,1004.05
2016-04-12T08:56:56.547Z,1004
2016-04-12T08:57:56.566Z,1004.01
2016-04-12T08:58:56.569Z,1004.01
2016-04-12T08:59:56.571Z,1003.99
2016-04-12T09:00:56.590Z,1004.01
2016-04-12T09:01:56.593Z,1003.97
2016-04-12T09:02:56.595Z,1003.93
2016-04-12T09:03:56.613Z,1003.92
2016-04-12T09:04:56.615Z,1003.9
2016-04-12T09:05:56.634Z,1003.89
2016-04-12T09:06:56.621Z,1003.89
2016-04-12T09:07:56.640Z,1003.88
2016-04-12T09:08:56.631Z,1003.89
2016-04-12T09:09:56.634Z,1003.88
2016-04-12T09:10:56.653Z,1003.83
2016-04-12T09:11:56.656Z,1003.84
2016-04-12T09:12:56.658Z,1003.85
2016-04-12T09:13:56.661Z,1003.85
2016-04-12T09:14:56.678Z,1003.89
2016-04-12T09:15:56.681Z,1003.87
2016-04-12T09:16:56.684Z,1003.94
2016-04-12T09:17:56.703Z,1003.87
2016-04-12T09:18:56.705Z,1003.89
2016-04-12T09:19:56.708Z,1003.9
2016-04-12T09:20:56.710Z,1003.9
2016-04-12T09:21:56.729Z,1003.86
2016-04-12T09:22:56.732Z,1003.88
2016-04-12T09:23:56.750Z,1003.86
2016-04-12T09:24:56.737Z,1003.91
2016-04-12T09:25:56.755Z,1003.86
2016-04-12T09:26:56.758Z,1003.9
2016-04-12T09:27:56.776Z,1003.86
2016-04-12T09:28:56.779Z,1003.87
2016-04-12T09:29:56.782Z,1003.9
2016-04-12T09:31:56.803Z,1003.78
2016-04-12T09:32:56.806Z,1003.81
2016-04-12T09:33:56.809Z,1003.83
2016-04-12T09:34:56.812Z,1003.88
2016-04-12T09:35:56.829Z,1003.78
2016-04-12T09:36:56.832Z,1003.84
2016-04-12T09:37:56.834Z,1003.77
2016-04-12T09:38:56.853Z,1003.79
2016-04-12T09:39:56.856Z,1003.74
2016-04-12T09:40:56.859Z,1003.69
2016-04-12T09:41:56.861Z,1003.74
2016-04-12T09:42:56.879Z,1003.69
2016-04-12T09:43:56.881Z,1003.7
2016-04-12T09:44:56.884Z,1003.63
2016-04-12T09:45:56.903Z,1003.67
2016-04-12T09:46:56.906Z,1003.65
2016-04-12T09:47:56.908Z,1003.62
2016-04-12T09:48:56.911Z,1003.6
2016-04-12T09:49:56.930Z,1003.64
2016-04-12T09:50:56.932Z,1003.73
2016-04-12T09:51:56.934Z,1003.6
2016-04-12T09:52:56.937Z,1003.65
2016-04-12T09:53:56.956Z,1003.66
2016-04-12T09:54:56.958Z,1003.62
2016-04-12T09:55:56.961Z,1003.65
2016-04-12T09:56:56.979Z,1003.67
2016-04-12T09:57:56.982Z,1003.62
2016-04-12T09:58:56.985Z,1003.67
2016-04-12T09:59:56.988Z,1003.63
2016-04-12T10:00:57.022Z,1003.68
2016-04-12T10:01:57.009Z,1003.57
2016-04-12T10:02:57.011Z,1003.61
2016-04-12T10:03:57.014Z,1003.57
2016-04-12T10:04:57.048Z,1003.55
2016-04-12T10:05:57.034Z,1003.53
2016-04-12T10:06:57.038Z,1003.49
2016-04-12T10:07:57.040Z,1003.5
2016-04-12T10:08:57.059Z,1003.46
2016-04-12T10:09:57.061Z,1003.47
2016-04-12T10:10:57.079Z,1003.52
2016-04-12T10:11:57.082Z,1003.48
2016-04-12T10:12:57.084Z,1003.55
2016-04-12T10:13:57.087Z,1003.53
2016-04-12T10:14:57.089Z,1003.5
2016-04-12T10:15:57.109Z,1003.52
2016-04-12T10:16:57.111Z,1003.64
2016-04-12T10:17:57.114Z,1003.53
2016-04-12T10:18:57.116Z,1003.56
2016-04-12T10:19:57.135Z,1003.55
2016-04-12T10:20:57.138Z,1003.56
2016-04-12T10:21:57.141Z,1003.59
2016-04-12T10:22:57.159Z,1003.54
2016-04-12T10:23:57.161Z,1003.51
2016-04-12T10:24:57.163Z,1003.49
2016-04-12T10:25:57.166Z,1003.48
2016-04-12T10:26:57.185Z,1003.51
2016-04-12T10:27:57.188Z,1003.46
2016-04-12T10:28:57.190Z,1003.45
2016-04-12T10:29:57.193Z,1003.43
2016-04-12T10:30:57.212Z,1003.44
2016-04-12T10:31:57.214Z,1003.37
2016-04-12T10:32:57.217Z,1003.39
2016-04-12T10:33:57.220Z,1003.42
2016-04-12T10:34:57.237Z,1003.41
2016-04-12T10:35:57.241Z,1003.37
2016-04-12T10:36:57.243Z,1003.47
2016-04-12T10:37:57.246Z,1003.43
2016-04-12T10:38:57.264Z,1003.45
2016-04-12T10:39:57.267Z,1003.4
2016-04-12T10:40:57.269Z,1003.45
2016-04-12T10:41:57.287Z,1003.44
2016-04-12T10:42:57.291Z,1003.4
2016-04-12T10:43:57.293Z,1003.47
2016-04-12T10:44:57.296Z,1003.47
2016-04-12T10:45:57.314Z,1003.48
2016-04-12T10:46:57.317Z,1003.45
2016-04-12T10:47:57.320Z,1003.42
2016-04-12T10:48:57.417Z,1003.43
2016-04-12T10:49:57.341Z,1003.45
2016-04-12T10:50:57.343Z,1003.43
2016-04-12T10:51:57.347Z,1003.43
2016-04-12T10:52:57.364Z,1003.38
2016-04-12T10:53:57.367Z,1003.38
2016-04-12T10:54:57.370Z,1003.4
2016-04-12T10:55:57.388Z,1003.37
2016-04-12T10:56:57.391Z,1003.37
2016-04-12T10:57:57.393Z,1003.38
2016-04-12T10:58:57.396Z,1003.38
2016-04-12T10:59:57.415Z,1003.41
2016-04-12T11:01:57.420Z,1003.37
2016-04-12T11:02:57.423Z,1003.37
2016-04-12T11:03:57.643Z,1003.33
2016-04-12T11:04:57.443Z,1003.29
2016-04-12T11:05:57.446Z,1003.26
2016-04-12T11:06:57.464Z,1003.27
2016-04-12T11:07:57.467Z,1003.24
2016-04-12T11:08:57.471Z,1003.2
2016-04-12T11:09:57.473Z,1003.27
2016-04-12T11:10:57.475Z,1003.22
2016-04-12T11:11:57.493Z,1003.14
2016-04-12T11:12:57.495Z,1003.18
2016-04-12T11:13:57.499Z,1003.22
2016-04-12T11:14:57.517Z,1003.18
2016-04-12T11:15:57.520Z,1003.18
2016-04-12T11:16:57.522Z,1003.17
2016-04-12T11:17:57.541Z,1003.07
2016-04-12T11:18:57.559Z,1003.1
2016-04-12T11:19:57.561Z,1003.16
2016-04-12T11:20:57.549Z,1003.12
2016-04-12T11:21:57.567Z,1003.19
2016-04-12T11:22:57.570Z,1003.18
2016-04-12T11:23:57.573Z,1003.15
2016-04-12T11:24:57.575Z,1003.18
2016-04-12T11:25:57.594Z,1003.13
2016-04-12T11:26:57.596Z,1003.13
2016-04-12T11:27:57.599Z,1003.16
2016-04-12T11:28:57.602Z,1003.19
2016-04-12T11:29:57.621Z,1003.1
2016-04-12T11:30:57.624Z,1003.09
2016-04-12T11:31:57.625Z,1003.11
2016-04-12T11:32:57.629Z,1003.1
2016-04-12T11:33:57.678Z,1003.12
2016-04-12T11:34:57.649Z,1003.16
2016-04-12T11:35:57.668Z,1003.14
2016-04-12T11:36:57.654Z,1003.17
2016-04-12T11:37:57.673Z,1003.16
2016-04-12T11:38:57.675Z,1003.11
2016-04-12T11:39:57.678Z,1003.08
2016-04-12T11:40:57.696Z,1003.15
2016-04-12T11:41:57.698Z,1003.13
2016-04-12T11:42:57.701Z,1003.04
2016-04-12T11:43:57.721Z,1002.99
2016-04-12T11:44:57.723Z,1002.98
2016-04-12T11:45:57.725Z,1003.01
2016-04-12T11:46:57.728Z,1002.95
2016-04-12T11:47:57.747Z,1002.98
2016-04-12T11:48:57.750Z,1002.98
2016-04-12T11:49:57.752Z,1002.99
2016-04-12T11:50:57.755Z,1003.01
2016-04-12T11:51:57.772Z,1002.93
2016-04-12T11:52:57.775Z,1002.95
2016-04-12T11:53:57.778Z,1002.9
2016-04-12T11:54:57.781Z,1002.89
2016-04-12T11:55:57.799Z,1002.89
2016-04-12T11:56:57.802Z,1002.95
2016-04-12T11:57:57.805Z,1002.92
2016-04-12T11:58:57.824Z,1002.91
2016-04-12T11:59:57.827Z,1002.86
2016-04-12T12:00:57.829Z,1002.91
2016-04-12T12:01:57.832Z,1002.9
2016-04-12T12:02:57.849Z,1002.89
2016-04-12T12:03:57.852Z,1002.92
2016-04-12T12:04:57.855Z,1002.85
2016-04-12T12:05:57.873Z,1002.85
2016-04-12T12:06:57.876Z,1002.84
2016-04-12T12:07:57.879Z,1002.85
2016-04-12T12:08:57.881Z,1002.89
2016-04-12T12:09:57.884Z,1002.84
2016-04-12T12:10:57.917Z,1002.89
2016-04-12T12:11:57.904Z,1002.87